Terminal Aerodrome Forecast
Issued by NWS

Home | Current Version | Previous Version | Text Only | Print | Product List | Glossary On
Versions: 1 2 3 4 5 6 7 8 9 10 11 12 13 14
000
FTUS43 KJKL 300812 AAA
TAFSME
TAF AMD
KSME 300812Z 3008/0106 00000KT 6SM BR FEW001 BKN180
     FM301100 00000KT 4SM BR SCT001 SCT180
      TEMPO 3011/3012 1/2SM FG BKN001
     FM301200 VRB04KT P6SM SCT050
     FM301500 25009KT P6SM VCTS SCT050CB=

USA.gov is the U.S. government's official web portal to all federal, state and local government web resources and services.